Time;durP1;ratioP1;P1;durP2;ratioP2;P2;SDS_P1;SDS_P2;PMS_P1;PMS_P2;Temp;Humidity;BMP_temperature;BMP_pressure;BME280_temperature;BME280_humidity;BME280_pressure;Samples;Min_cycle;Max_cycle;Signal;HPM_P1;HPM_P2
2022/04/18 00:00:21;;;;;;;5.20;2.88;;;9.90;54.00;;;;;;4958206;28;20065;-75
2022/04/18 00:02:47;;;;;;;6.00;3.42;;;9.90;54.00;;;;;;4960586;28;20027;-75
2022/04/18 00:05:13;;;;;;;6.95;3.40;;;9.90;54.10;;;;;;4957383;28;20031;-75
2022/04/18 00:07:39;;;;;;;6.05;3.20;;;9.80;54.10;;;;;;4957468;28;20031;-75
2022/04/18 00:10:05;;;;;;;6.78;3.75;;;9.80;54.60;;;;;;4956156;28;20023;-75
2022/04/18 00:12:31;;;;;;;5.82;3.40;;;9.80;54.90;;;;;;4957699;28;20509;-75
2022/04/18 00:14:57;;;;;;;5.32;3.70;;;9.70;55.10;;;;;;4959233;28;20023;-75
2022/04/18 00:17:23;;;;;;;6.65;3.60;;;9.70;55.40;;;;;;4959483;28;20031;-75
2022/04/18 00:19:49;;;;;;;5.85;3.38;;;9.70;55.30;;;;;;4957104;28;20030;-75
2022/04/18 00:22:14;;;;;;;8.60;3.97;;;9.70;55.60;;;;;;4956641;28;20119;-75
2022/04/18 00:24:40;;;;;;;7.53;3.75;;;9.70;56.00;;;;;;4956092;28;20032;-75
2022/04/18 00:27:05;;;;;;;5.57;3.20;;;9.70;55.80;;;;;;4942626;28;20391;-75
2022/04/18 00:29:31;;;;;;;7.28;3.95;;;9.70;56.00;;;;;;4957525;28;20109;-76
2022/04/18 00:31:57;;;;;;;6.13;3.58;;;9.70;56.30;;;;;;4958857;28;20693;-75
2022/04/18 00:34:23;;;;;;;5.72;4.00;;;9.60;56.30;;;;;;4941609;28;20177;-75
2022/04/18 00:36:48;;;;;;;7.85;4.10;;;9.60;56.60;;;;;;4957228;28;20042;-75
2022/04/18 00:39:14;;;;;;;6.80;4.03;;;9.70;56.70;;;;;;4956720;28;20055;-75
2022/04/18 00:41:39;;;;;;;7.00;4.10;;;9.60;56.80;;;;;;4957311;28;20039;-75
2022/04/18 00:44:05;;;;;;;8.18;4.47;;;9.60;57.20;;;;;;4958158;28;20050;-75
2022/04/18 00:46:31;;;;;;;7.88;4.72;;;9.60;57.20;;;;;;4980241;28;20050;-75
2022/04/18 00:48:56;;;;;;;5.85;3.97;;;9.60;57.70;;;;;;4956819;28;20027;-75
2022/04/18 00:51:25;;;;;;;6.95;4.30;;;9.60;58.00;;;;;;4954386;28;20059;-75
2022/04/18 00:53:55;;;;;;;7.55;4.32;;;9.60;58.40;;;;;;4960906;28;20503;-75
2022/04/18 00:56:21;;;;;;;7.50;4.43;;;9.60;58.60;;;;;;4975741;28;20614;-75
2022/04/18 00:58:49;;;;;;;8.02;4.25;;;9.50;58.60;;;;;;4959782;28;20638;-74
2022/04/18 01:01:16;;;;;;;7.70;4.75;;;9.50;58.60;;;;;;4955540;28;20034;-74
2022/04/18 01:03:43;;;;;;;10.90;5.28;;;9.60;58.90;;;;;;4958787;28;20043;-74
2022/04/18 01:06:09;;;;;;;6.75;3.92;;;9.50;59.10;;;;;;4956801;28;20395;-76
2022/04/18 01:08:35;;;;;;;7.07;4.40;;;9.50;59.50;;;;;;4935732;28;20035;-75
2022/04/18 01:11:02;;;;;;;6.65;4.53;;;9.50;59.90;;;;;;4953993;28;20042;-75
2022/04/18 01:13:28;;;;;;;8.45;4.50;;;9.50;60.90;;;;;;4959729;28;20454;-75
2022/04/18 01:15:55;;;;;;;7.18;4.65;;;9.50;60.70;;;;;;4958046;28;20672;-75
2022/04/18 01:18:21;;;;;;;9.77;5.28;;;9.40;60.60;;;;;;4957562;28;20031;-75
2022/04/18 01:20:47;;;;;;;7.78;4.95;;;9.40;61.00;;;;;;4957732;28;20035;-75
2022/04/18 01:23:13;;;;;;;9.82;4.93;;;9.40;61.50;;;;;;4954135;28;20048;-75
2022/04/18 01:31:08;;;;;;;10.55;5.57;;;9.40;63.70;;;;;;4960215;28;20027;-75
2022/04/18 01:33:33;;;;;;;10.45;5.40;;;9.30;63.70;;;;;;4960391;28;20135;-74
2022/04/18 01:35:59;;;;;;;9.30;5.40;;;9.30;63.70;;;;;;4970521;28;20511;-75
2022/04/18 01:38:25;;;;;;;10.30;5.40;;;9.30;64.30;;;;;;4959887;28;20023;-75
2022/04/18 01:40:51;;;;;;;8.52;5.68;;;9.30;65.00;;;;;;4950266;28;20027;-75
2022/04/18 01:43:17;;;;;;;9.57;5.13;;;9.30;65.60;;;;;;4954172;28;20086;-75
2022/04/18 01:45:43;;;;;;;9.60;5.20;;;9.30;65.90;;;;;;4956469;28;20062;-75
2022/04/18 01:48:08;;;;;;;10.48;5.20;;;9.20;66.80;;;;;;4958581;28;20089;-76
2022/04/18 01:50:36;;;;;;;8.88;4.93;;;9.20;67.10;;;;;;4956929;28;20039;-75
2022/04/18 01:53:03;;;;;;;8.50;5.22;;;9.20;67.80;;;;;;4956915;28;20031;-75
2022/04/18 01:55:28;;;;;;;10.63;5.65;;;9.10;68.10;;;;;;4955822;28;20035;-75
2022/04/18 01:57:54;;;;;;;9.38;5.60;;;9.10;69.10;;;;;;4957569;28;20078;-75
2022/04/18 02:00:20;;;;;;;11.68;5.70;;;9.10;70.10;;;;;;4955702;28;20059;-75
2022/04/18 02:02:45;;;;;;;12.30;5.57;;;9.10;71.20;;;;;;4925544;28;20031;-76
2022/04/18 02:05:11;;;;;;;9.13;5.18;;;9.10;71.00;;;;;;4956994;28;20074;-74
2022/04/18 02:07:37;;;;;;;10.50;5.95;;;9.00;71.10;;;;;;4956933;28;20511;-75
2022/04/18 02:10:03;;;;;;;10.02;5.40;;;9.00;71.70;;;;;;4955075;28;20032;-76
2022/04/18 02:12:30;;;;;;;10.35;5.75;;;9.00;72.00;;;;;;4958590;28;20035;-75
2022/04/18 02:14:55;;;;;;;13.35;5.18;;;9.00;72.90;;;;;;4956425;28;20032;-75
2022/04/18 02:17:21;;;;;;;9.82;5.40;;;8.90;73.70;;;;;;4958625;28;20055;-75
2022/04/18 02:19:47;;;;;;;10.00;5.18;;;8.90;74.20;;;;;;4956650;28;20418;-76
2022/04/18 02:22:13;;;;;;;8.90;5.25;;;8.90;74.60;;;;;;4971621;28;20030;-75
2022/04/18 02:24:41;;;;;;;9.98;6.15;;;8.80;75.30;;;;;;4957613;28;20042;-75
2022/04/18 02:27:07;;;;;;;7.80;5.10;;;8.90;76.20;;;;;;4955877;28;20106;-75
2022/04/18 02:29:33;;;;;;;9.93;5.25;;;8.90;76.80;;;;;;4954361;28;20106;-75
2022/04/18 02:34:43;;;;;;;8.50;5.20;;;8.90;77.00;;;;;;4958314;28;20082;-75
2022/04/18 02:37:10;;;;;;;9.90;5.22;;;8.90;77.40;;;;;;4956996;28;20050;-75
2022/04/18 02:39:35;;;;;;;11.05;6.10;;;8.80;78.30;;;;;;4954828;28;20153;-75
2022/04/18 02:42:01;;;;;;;10.45;6.50;;;8.80;78.80;;;;;;4960203;28;20073;-76
2022/04/18 02:44:27;;;;;;;10.85;6.10;;;8.80;78.60;;;;;;4957845;28;20025;-75
2022/04/18 02:46:53;;;;;;;7.63;5.05;;;8.80;79.50;;;;;;4962220;28;20058;-75
2022/04/18 02:49:18;;;;;;;8.90;5.90;;;8.80;79.70;;;;;;4960156;28;20484;-75
2022/04/18 02:51:45;;;;;;;13.25;5.80;;;8.70;79.90;;;;;;4958513;28;20023;-75
2022/04/18 02:54:11;;;;;;;9.63;5.75;;;8.70;80.40;;;;;;4959163;28;20035;-75
2022/04/18 02:56:36;;;;;;;9.15;5.57;;;8.70;81.50;;;;;;4966427;28;20039;-75
2022/04/18 02:59:02;;;;;;;9.57;5.90;;;8.60;81.00;;;;;;4958883;28;20137;-75
2022/04/18 03:01:28;;;;;;;10.10;6.00;;;8.60;82.50;;;;;;4940985;28;20491;-76
2022/04/18 03:03:53;;;;;;;8.25;5.00;;;8.60;82.80;;;;;;4961027;28;20034;-75
2022/04/18 03:06:19;;;;;;;10.40;5.85;;;8.60;83.40;;;;;;4961745;28;20109;-75
2022/04/18 03:08:45;;;;;;;11.27;6.47;;;8.60;83.80;;;;;;4960152;28;20031;-75
2022/04/18 03:11:10;;;;;;;8.57;5.85;;;8.60;84.40;;;;;;4960672;28;20027;-75
2022/04/18 03:13:37;;;;;;;9.13;5.60;;;8.50;85.20;;;;;;4960754;28;21717;-75
2022/04/18 03:16:05;;;;;;;9.70;5.68;;;8.50;85.30;;;;;;4961586;28;20023;-75
2022/04/18 03:18:30;;;;;;;10.25;6.35;;;8.50;86.00;;;;;;4959281;28;20023;-75
2022/04/18 03:20:57;;;;;;;11.30;5.78;;;8.50;85.90;;;;;;4957282;28;20039;-75
2022/04/18 03:23:23;;;;;;;9.23;6.03;;;8.40;85.40;;;;;;4960860;28;20118;-75
2022/04/18 03:25:48;;;;;;;12.43;6.53;;;8.40;86.10;;;;;;4960550;28;20039;-76
2022/04/18 03:28:14;;;;;;;10.07;6.15;;;8.40;86.50;;;;;;4960818;28;20034;-75
2022/04/18 03:30:40;;;;;;;10.10;6.47;;;8.40;87.00;;;;;;4959919;28;20189;-75
2022/04/18 03:33:05;;;;;;;11.82;6.28;;;8.40;88.00;;;;;;4959971;28;20051;-75
2022/04/18 03:35:31;;;;;;;9.93;5.93;;;8.30;87.90;;;;;;4961832;28;20487;-75
2022/04/18 03:40:41;;;;;;;10.10;5.82;;;8.30;88.60;;;;;;4960274;28;20035;-74
2022/04/18 03:43:07;;;;;;;9.43;5.95;;;8.20;89.10;;;;;;4958505;28;20031;-74
2022/04/18 03:45:33;;;;;;;11.32;6.30;;;8.20;89.30;;;;;;4957402;28;20030;-74
2022/04/18 03:47:59;;;;;;;10.07;6.57;;;8.30;90.00;;;;;;4960816;28;20030;-75
2022/04/18 03:50:25;;;;;;;10.10;6.78;;;8.30;90.20;;;;;;4956356;28;20499;-74
2022/04/18 03:52:50;;;;;;;14.10;7.18;;;8.20;90.20;;;;;;4959763;28;20038;-74
2022/04/18 03:55:16;;;;;;;11.02;6.65;;;8.30;90.50;;;;;;4959165;28;20506;-75
2022/04/18 03:57:42;;;;;;;10.90;6.75;;;8.30;90.70;;;;;;4957379;28;20045;-75
2022/04/18 04:00:10;;;;;;;10.20;6.65;;;8.20;90.90;;;;;;4961797;28;20027;-75
2022/04/18 04:02:36;;;;;;;12.00;6.47;;;8.20;91.00;;;;;;4959879;28;20031;-74
2022/04/18 04:05:02;;;;;;;11.63;6.88;;;8.20;91.00;;;;;;4961572;28;20023;-75
2022/04/18 04:07:28;;;;;;;11.20;6.38;;;8.20;91.10;;;;;;4961830;28;20436;-74
2022/04/18 04:09:53;;;;;;;9.95;7.38;;;8.20;91.10;;;;;;4943334;28;20149;-75
2022/04/18 04:12:23;;;;;;;12.68;6.85;;;8.10;91.50;;;;;;4959406;28;20018;-75
2022/04/18 04:14:53;;;;;;;10.45;6.55;;;8.10;91.40;;;;;;4959787;28;20046;-75
2022/04/18 04:17:19;;;;;;;11.77;6.85;;;8.10;91.60;;;;;;4957849;28;20141;-75
2022/04/18 04:19:44;;;;;;;10.18;7.32;;;8.10;91.80;;;;;;4952188;28;20114;-74
2022/04/18 04:22:10;;;;;;;10.55;6.18;;;8.00;92.10;;;;;;4961526;28;20098;-74
2022/04/18 04:24:36;;;;;;;11.40;7.13;;;8.00;92.30;;;;;;4958720;28;20551;-75
2022/04/18 04:27:02;;;;;;;11.05;6.45;;;8.10;92.60;;;;;;4973835;28;20107;-75
2022/04/18 04:29:28;;;;;;;11.57;6.82;;;8.10;92.50;;;;;;4959754;28;20094;-75
2022/04/18 04:31:53;;;;;;;10.50;6.75;;;8.10;92.60;;;;;;4954929;28;20054;-75
2022/04/18 04:34:19;;;;;;;11.15;6.93;;;8.10;92.70;;;;;;4958733;28;20102;-75
2022/04/18 04:36:45;;;;;;;10.05;6.70;;;8.10;93.00;;;;;;4959658;28;20107;-75
2022/04/18 04:39:11;;;;;;;13.05;7.57;;;8.10;93.30;;;;;;4957244;28;20629;-75
2022/04/18 04:41:37;;;;;;;10.20;6.38;;;8.10;93.80;;;;;;4970919;28;20121;-75
2022/04/18 04:44:03;;;;;;;10.57;7.10;;;8.10;93.60;;;;;;4962633;28;20050;-75
2022/04/18 04:46:29;;;;;;;11.57;7.03;;;8.10;93.80;;;;;;4957096;28;20788;-74
2022/04/18 04:48:58;;;;;;;13.45;7.72;;;8.20;93.90;;;;;;4972014;28;20037;-75
2022/04/18 04:51:24;;;;;;;10.75;7.20;;;8.20;93.90;;;;;;4970495;28;20037;-74
2022/04/18 04:53:50;;;;;;;13.45;7.85;;;8.20;94.10;;;;;;4957634;28;20038;-75
2022/04/18 04:56:17;;;;;;;14.40;7.68;;;8.20;94.10;;;;;;4972620;28;20042;-74
2022/04/18 04:58:43;;;;;;;13.98;8.30;;;8.20;94.20;;;;;;4957613;28;20438;-74
2022/04/18 05:01:09;;;;;;;13.48;7.72;;;8.30;94.30;;;;;;4952263;28;20094;-75
2022/04/18 05:03:35;;;;;;;11.90;7.07;;;8.30;94.10;;;;;;4957616;28;20103;-75
2022/04/18 05:06:01;;;;;;;12.52;7.68;;;8.30;94.10;;;;;;4955471;28;20082;-75
2022/04/18 05:08:26;;;;;;;12.70;7.30;;;8.40;94.30;;;;;;4959772;28;20053;-78
2022/04/18 05:10:59;;;;;;;14.55;7.70;;;8.40;94.30;;;;;;4954586;28;20033;-75
2022/04/18 05:13:25;;;;;;;12.48;7.25;;;8.50;94.50;;;;;;4958257;28;20482;-76
2022/04/18 05:15:51;;;;;;;13.50;7.32;;;8.50;94.50;;;;;;4957540;28;20028;-75
2022/04/18 05:18:16;;;;;;;11.00;6.47;;;8.50;94.50;;;;;;4957841;28;20023;-76
2022/04/18 05:20:44;;;;;;;13.25;7.85;;;8.50;94.60;;;;;;4957525;28;20058;-76
2022/04/18 05:23:11;;;;;;;11.80;6.80;;;8.60;94.60;;;;;;4957917;28;20035;-75
2022/04/18 05:25:37;;;;;;;10.98;6.88;;;8.60;94.40;;;;;;4958086;28;20046;-75
2022/04/18 05:28:03;;;;;;;13.05;8.05;;;8.60;94.40;;;;;;4959171;28;20034;-75
2022/04/18 05:30:29;;;;;;;13.45;7.80;;;8.70;95.00;;;;;;4956067;28;20035;-75
2022/04/18 05:32:54;;;;;;;12.98;7.40;;;8.70;95.00;;;;;;4956038;28;20680;-75
2022/04/18 05:35:20;;;;;;;15.68;8.10;;;8.70;95.00;;;;;;4958675;28;20031;-75
2022/04/18 05:37:47;;;;;;;13.00;7.03;;;8.80;94.70;;;;;;4959614;28;20031;-75
2022/04/18 05:40:15;;;;;;;12.05;7.45;;;8.80;94.50;;;;;;4957134;28;20070;-75
2022/04/18 05:42:41;;;;;;;13.48;7.38;;;8.80;94.40;;;;;;4955765;28;20034;-74
2022/04/18 05:45:08;;;;;;;10.85;7.35;;;8.90;94.30;;;;;;4953568;28;20405;-75
2022/04/18 05:47:33;;;;;;;13.90;8.02;;;8.90;94.20;;;;;;4959113;28;20114;-75
2022/04/18 05:49:59;;;;;;;11.05;6.35;;;9.00;94.20;;;;;;4968221;28;20113;-74
2022/04/18 05:52:24;;;;;;;10.43;7.35;;;9.00;94.90;;;;;;4957691;28;20498;-75
2022/04/18 05:54:50;;;;;;;12.60;7.55;;;9.40;94.60;;;;;;4955079;28;20491;-74
2022/04/18 05:57:15;;;;;;;11.30;7.10;;;9.60;93.50;;;;;;4952454;28;20023;-74
2022/04/18 05:59:41;;;;;;;13.00;7.72;;;9.60;93.10;;;;;;4955470;28;20034;-75
2022/04/18 06:02:07;;;;;;;10.40;6.82;;;9.50;93.10;;;;;;4956918;28;20031;-76
2022/04/18 06:04:33;;;;;;;13.20;8.30;;;9.50;93.10;;;;;;4957041;28;20034;-76
2022/04/18 06:07:06;;;;;;;13.82;7.68;;;9.50;93.00;;;;;;4955756;28;20027;-76
2022/04/18 06:09:32;;;;;;;11.85;7.45;;;9.50;92.90;;;;;;4940726;28;20054;-75
2022/04/18 06:11:58;;;;;;;14.00;8.02;;;9.50;93.10;;;;;;4970791;28;20027;-76
2022/04/18 06:14:23;;;;;;;14.45;8.75;;;9.50;93.00;;;;;;4960023;28;20485;-76
2022/04/18 06:16:49;;;;;;;12.30;7.47;;;9.50;93.00;;;;;;4960505;28;20055;-76
2022/04/18 06:19:15;;;;;;;14.65;8.30;;;9.50;93.00;;;;;;4965477;28;20554;-75
2022/04/18 06:21:41;;;;;;;10.98;7.93;;;9.60;92.90;;;;;;4940395;28;20043;-75
2022/04/18 06:24:06;;;;;;;14.07;8.95;;;9.60;92.70;;;;;;4958842;28;20053;-75
2022/04/18 06:26:32;;;;;;;14.20;8.25;;;9.60;92.50;;;;;;4976005;28;20503;-76
2022/04/18 06:28:58;;;;;;;12.95;8.02;;;9.70;92.80;;;;;;4939539;28;20056;-76
2022/04/18 06:31:24;;;;;;;11.18;7.82;;;9.70;92.50;;;;;;4959621;28;20109;-74
2022/04/18 06:33:50;;;;;;;12.27;7.93;;;9.70;92.40;;;;;;4963194;28;20050;-76
2022/04/18 06:36:16;;;;;;;10.93;7.70;;;9.70;92.30;;;;;;4967221;28;20023;-75
2022/04/18 06:38:41;;;;;;;13.77;8.18;;;9.80;92.10;;;;;;4961188;28;20035;-77
2022/04/18 06:41:10;;;;;;;11.85;8.45;;;9.70;92.30;;;;;;4960258;28;20087;-75
2022/04/18 06:43:36;;;;;;;12.48;7.75;;;9.80;92.20;;;;;;4957982;28;20483;-75
2022/04/18 06:46:02;;;;;;;13.63;8.45;;;9.80;92.30;;;;;;4957725;28;20057;-74
2022/04/18 06:48:28;;;;;;;12.25;7.25;;;9.80;92.30;;;;;;4966814;28;20027;-75
2022/04/18 06:50:53;;;;;;;14.50;8.05;;;9.90;92.20;;;;;;4957899;28;20070;-74
2022/04/18 06:53:19;;;;;;;12.30;8.45;;;10.00;91.90;;;;;;4973960;28;20487;-74
2022/04/18 06:58:30;;;;;;;10.48;7.25;;;10.10;91.60;;;;;;4956483;28;20038;-74
2022/04/18 07:00:56;;;;;;;14.45;7.43;;;10.10;91.40;;;;;;4958189;28;20403;-75
2022/04/18 07:03:22;;;;;;;14.25;7.90;;;10.20;91.00;;;;;;4974139;28;20121;-76
2022/04/18 07:05:49;;;;;;;11.65;7.75;;;10.20;91.30;;;;;;4963246;28;20043;-75
2022/04/18 07:08:14;;;;;;;11.60;7.43;;;10.20;91.20;;;;;;4960208;28;20058;-75
2022/04/18 07:10:47;;;;;;;10.70;7.10;;;10.30;91.10;;;;;;4958769;28;20043;-74
2022/04/18 07:13:13;;;;;;;11.40;7.53;;;10.30;91.00;;;;;;4945802;28;20023;-75
2022/04/18 07:15:39;;;;;;;11.35;7.53;;;10.40;91.00;;;;;;4959016;28;20050;-74
2022/04/18 07:18:09;;;;;;;13.48;7.03;;;10.40;90.70;;;;;;4961228;28;20026;-74
2022/04/18 07:20:35;;;;;;;14.43;7.57;;;10.50;90.80;;;;;;4958818;28;20059;-75
2022/04/18 07:23:02;;;;;;;13.05;8.45;;;10.50;90.10;;;;;;4959079;28;20054;-75
2022/04/18 07:25:28;;;;;;;12.57;7.78;;;10.60;89.50;;;;;;4959113;28;20632;-76
2022/04/18 07:27:54;;;;;;;12.23;7.70;;;10.60;88.70;;;;;;4963827;28;20027;-76
2022/04/18 07:30:20;;;;;;;11.73;7.60;;;10.60;88.50;;;;;;4973882;28;20486;-75
2022/04/18 07:32:46;;;;;;;13.32;7.10;;;10.60;88.40;;;;;;4960423;28;20078;-75
2022/04/18 07:35:14;;;;;;;10.85;6.65;;;10.70;88.30;;;;;;4953365;28;20035;-76
2022/04/18 07:38:48;;;;;;;9.90;6.68;;;10.70;88.40;;;;;;4956524;28;20147;-75
2022/04/18 07:40:28;;;;;;;13.82;8.18;;;10.80;88.60;;;;;;4955770;28;20039;-76
2022/04/18 07:42:54;;;;;;;12.82;7.75;;;10.90;87.30;;;;;;4960665;28;20532;-75
2022/04/18 07:45:20;;;;;;;14.88;7.60;;;10.90;86.80;;;;;;4960499;28;20026;-76
2022/04/18 07:47:45;;;;;;;14.23;7.85;;;11.00;86.20;;;;;;4972812;28;20026;-75
2022/04/18 07:50:11;;;;;;;11.85;7.07;;;11.10;86.60;;;;;;4959789;28;20033;-75
2022/04/18 07:52:37;;;;;;;16.60;8.27;;;11.10;86.30;;;;;;4961962;28;20035;-75
2022/04/18 07:55:03;;;;;;;13.57;7.88;;;11.20;86.20;;;;;;4958590;28;20019;-76
2022/04/18 07:57:30;;;;;;;13.35;7.38;;;11.20;86.20;;;;;;4958952;28;20049;-76
2022/04/18 07:59:56;;;;;;;14.45;7.65;;;11.30;86.10;;;;;;4955544;28;20047;-76
2022/04/18 08:02:23;;;;;;;13.73;7.95;;;11.30;86.00;;;;;;4960706;28;20450;-75
2022/04/18 08:04:49;;;;;;;14.88;7.72;;;11.40;85.30;;;;;;4942722;28;20030;-76
2022/04/18 08:07:14;;;;;;;12.45;7.85;;;11.40;84.70;;;;;;4976611;28;20031;-75
2022/04/18 08:09:40;;;;;;;11.18;7.40;;;11.40;84.60;;;;;;4958968;28;20042;-75
2022/04/18 08:12:07;;;;;;;12.35;7.00;;;11.40;84.40;;;;;;4976445;28;20371;-76
2022/04/18 08:14:32;;;;;;;12.82;7.78;;;11.50;84.70;;;;;;4959193;28;20070;-76
2022/04/18 08:16:58;;;;;;;11.82;7.45;;;11.60;84.20;;;;;;4961875;28;20444;-77
2022/04/18 08:19:24;;;;;;;10.80;6.45;;;11.60;83.70;;;;;;4956784;28;20022;-75
2022/04/18 08:21:49;;;;;;;12.77;7.35;;;11.60;83.30;;;;;;4958239;28;20038;-75
2022/04/18 08:24:15;;;;;;;13.68;7.68;;;11.80;82.70;;;;;;4971211;28;20027;-75
2022/04/18 08:26:41;;;;;;;13.77;6.78;;;11.80;82.70;;;;;;4970434;28;20047;-75
2022/04/18 08:29:07;;;;;;;11.68;7.45;;;11.90;82.80;;;;;;4952803;28;20023;-76
2022/04/18 08:31:32;;;;;;;11.20;7.13;;;11.90;82.10;;;;;;4973137;28;20031;-76
2022/04/18 08:33:58;;;;;;;9.65;6.72;;;12.00;80.80;;;;;;4960190;28;20069;-75
2022/04/18 08:36:24;;;;;;;12.48;7.43;;;12.00;80.70;;;;;;4955621;28;20027;-74
2022/04/18 08:38:50;;;;;;;10.90;6.57;;;12.10;80.10;;;;;;4959458;28;20050;-75
2022/04/18 08:41:21;;;;;;;10.85;6.53;;;12.20;79.90;;;;;;4960161;28;20031;-75
2022/04/18 08:43:47;;;;;;;;;;;12.20;79.60;;;;;;4961672;28;20039;-75
2022/04/18 08:46:13;;;;;;;10.10;6.47;;;12.30;79.20;;;;;;4977629;28;19925;-76
2022/04/18 08:54:13;;;;;;;11.70;7.35;;;12.40;78.20;;;;;;4954784;28;20030;-76
2022/04/18 08:56:39;;;;;;;12.38;7.15;;;12.50;79.00;;;;;;4956970;28;20042;-75
2022/04/18 08:59:04;;;;;;;12.25;7.20;;;12.50;77.60;;;;;;4956098;28;20026;-77
2022/04/18 09:01:30;;;;;;;13.70;6.47;;;12.50;77.70;;;;;;4959935;28;20423;-76
2022/04/18 09:03:57;;;;;;;10.40;6.53;;;12.60;77.90;;;;;;4954991;28;20499;-74
2022/04/18 09:06:24;;;;;;;9.70;6.30;;;12.60;77.80;;;;;;4963865;28;20113;-75
2022/04/18 09:08:55;;;;;;;11.27;6.72;;;12.60;77.80;;;;;;4963367;28;20054;-75
2022/04/18 09:11:38;;;;;;;11.55;6.47;;;12.70;77.50;;;;;;4961837;28;20149;-75
2022/04/18 09:14:11;;;;;;;10.45;6.35;;;12.80;77.40;;;;;;4973888;28;20734;-76
2022/04/18 09:16:38;;;;;;;11.75;7.30;;;12.80;76.60;;;;;;4959046;28;20063;-78
2022/04/18 09:19:16;;;;;;;10.32;7.22;;;12.90;76.80;;;;;;4956643;28;20019;-72
2022/04/18 09:21:42;;;;;;;10.57;6.78;;;13.00;77.40;;;;;;4963500;28;22216;-75
2022/04/18 09:24:31;;;;;;;10.07;7.20;;;13.00;77.00;;;;;;4952522;28;21050;-74
2022/04/18 09:27:06;;;;;;;12.77;6.38;;;13.20;73.60;;;;;;4953099;28;20114;-75
2022/04/18 09:29:33;;;;;;;12.20;7.80;;;13.20;74.40;;;;;;4962182;28;20034;-75
2022/04/18 09:32:00;;;;;;;11.48;6.57;;;13.20;74.10;;;;;;4958318;28;20039;-73
2022/04/18 09:34:26;;;;;;;9.82;5.88;;;13.30;73.10;;;;;;4956177;28;20038;-73
2022/04/18 09:37:17;;;;;;;12.20;7.38;;;13.30;72.90;;;;;;4957097;28;20038;-74
2022/04/18 09:39:52;;;;;;;10.68;6.82;;;13.40;71.30;;;;;;4955136;28;20039;-71
2022/04/18 09:42:21;;;;;;;11.35;6.43;;;13.40;71.40;;;;;;4958112;28;20510;-72
2022/04/18 09:44:47;;;;;;;12.73;7.55;;;13.40;71.20;;;;;;4955358;28;20045;-76
2022/04/18 09:47:21;;;;;;;10.88;7.10;;;13.40;70.60;;;;;;4949846;28;20035;-73
2022/04/18 09:49:47;;;;;;;11.43;7.13;;;13.50;70.50;;;;;;4950966;28;20129;-73
2022/04/18 09:52:17;;;;;;;12.15;7.95;;;13.40;70.30;;;;;;4949061;28;20034;-75
2022/04/18 09:54:54;;;;;;;10.73;6.95;;;13.40;70.30;;;;;;4954941;28;20394;-73
2022/04/18 09:57:23;;;;;;;11.55;6.90;;;13.50;68.20;;;;;;4957062;28;20035;-75
2022/04/18 09:59:53;;;;;;;11.25;7.18;;;13.60;69.10;;;;;;4953549;28;20058;-73
2022/04/18 10:02:20;;;;;;;10.55;6.80;;;13.60;68.40;;;;;;4953192;28;20079;-72
2022/04/18 10:04:47;;;;;;;10.68;7.30;;;13.70;67.20;;;;;;4952363;28;21016;-74
2022/04/18 10:07:14;;;;;;;9.57;6.25;;;13.80;66.10;;;;;;4955850;28;20059;-78
2022/04/18 10:09:41;;;;;;;14.68;6.57;;;13.70;65.40;;;;;;4940897;28;20031;-78
2022/04/18 10:12:14;;;;;;;10.88;6.55;;;13.80;65.10;;;;;;4954865;28;20038;-76
2022/04/18 10:14:41;;;;;;;9.90;6.07;;;13.80;65.70;;;;;;4949618;28;20085;-75
2022/04/18 10:17:08;;;;;;;11.13;6.60;;;13.90;66.30;;;;;;4953726;28;20027;-76
2022/04/18 10:20:08;;;;;;;9.15;6.53;;;13.90;66.50;;;;;;4949757;28;20406;-78
2022/04/18 10:22:55;;;;;;;9.07;6.82;;;13.90;64.90;;;;;;4953529;28;20027;-75
2022/04/18 10:25:34;;;;;;;9.13;5.90;;;13.90;65.90;;;;;;4955855;28;20034;-80
2022/04/18 10:28:04;;;;;;;11.25;7.13;;;13.90;67.10;;;;;;4972689;28;20118;-76
2022/04/18 10:30:39;;;;;;;10.35;7.57;;;14.00;66.50;;;;;;4955717;28;20419;-76
2022/04/18 10:33:08;;;;;;;10.38;6.43;;;14.00;65.40;;;;;;4954111;28;20046;-75
2022/04/18 10:35:34;;;;;;;8.20;5.43;;;14.10;65.80;;;;;;4952583;28;20031;-76
2022/04/18 10:38:03;;;;;;;8.27;5.88;;;14.10;66.30;;;;;;4948867;28;20118;-76
2022/04/18 10:40:41;;;;;;;11.13;6.97;;;14.20;66.20;;;;;;4958421;28;20086;-76
2022/04/18 10:43:10;;;;;;;12.25;5.88;;;14.20;65.60;;;;;;4958231;28;20041;-76
2022/04/18 10:45:35;;;;;;;10.13;5.70;;;14.30;66.30;;;;;;4951219;28;20055;-76
2022/04/18 10:48:07;;;;;;;9.95;6.97;;;14.30;65.50;;;;;;4962317;28;20040;-77
2022/04/18 10:50:37;;;;;;;8.45;5.90;;;14.40;66.00;;;;;;4979178;28;20030;-78
2022/04/18 10:53:14;;;;;;;8.38;5.68;;;14.50;65.90;;;;;;4963747;28;20057;-81
2022/04/18 10:55:50;;;;;;;7.70;5.72;;;14.60;65.70;;;;;;4971238;28;20036;-81
2022/04/18 10:58:21;;;;;;;7.30;5.47;;;14.60;64.00;;;;;;4971826;28;20587;-79
2022/04/18 11:00:57;;;;;;;11.77;6.82;;;14.80;63.70;;;;;;4962540;28;20396;-77
2022/04/18 11:03:38;;;;;;;10.13;5.70;;;14.90;61.60;;;;;;4972034;28;20035;-79
2022/04/18 11:06:16;;;;;;;7.75;5.28;;;15.30;60.80;;;;;;4977721;28;20029;-79
2022/04/18 11:09:00;;;;;;;9.25;5.35;;;15.90;60.30;;;;;;4980027;28;20027;-78
2022/04/18 11:11:42;;;;;;;7.68;5.00;;;17.60;60.80;;;;;;4972610;28;20038;-80
2022/04/18 11:14:24;;;;;;;7.68;5.65;;;19.70;58.00;;;;;;4972563;28;20111;-78
2022/04/18 11:16:56;;;;;;;7.72;5.57;;;21.80;50.30;;;;;;4972274;28;20039;-79
2022/04/18 11:19:25;;;;;;;7.95;6.10;;;23.40;45.20;;;;;;4974902;28;20094;-79
2022/04/18 11:21:57;;;;;;;5.97;4.93;;;25.00;41.90;;;;;;4955367;28;20084;-81
2022/04/18 11:24:40;;;;;;;6.85;5.18;;;26.50;40.00;;;;;;4993160;28;20090;-80
2022/04/18 11:27:20;;;;;;;5.43;3.97;;;28.00;36.30;;;;;;4979369;28;20034;-80
2022/04/18 11:30:01;;;;;;;4.55;3.45;;;28.90;35.30;;;;;;4976600;28;20054;-81
2022/04/18 11:32:39;;;;;;;7.18;5.88;;;30.00;33.70;;;;;;4987893;28;20111;-81
2022/04/18 11:35:08;;;;;;;6.15;4.75;;;30.00;30.00;;;;;;4978461;28;20027;-80
2022/04/18 11:37:36;;;;;;;5.53;3.40;;;29.80;32.10;;;;;;4979177;28;20450;-82
2022/04/18 11:40:08;;;;;;;5.80;4.28;;;29.50;32.80;;;;;;4987040;28;20023;-80
2022/04/18 11:42:35;;;;;;;6.00;5.40;;;29.10;32.90;;;;;;4973923;28;20070;-79
2022/04/18 11:45:06;;;;;;;7.15;4.75;;;28.50;33.20;;;;;;4970499;28;20102;-80
2022/04/18 11:47:37;;;;;;;5.85;5.18;;;27.70;32.70;;;;;;4970715;28;20090;-82
2022/04/18 11:50:07;;;;;;;5.57;4.15;;;26.80;32.90;;;;;;4981264;28;20031;-80
2022/04/18 11:52:36;;;;;;;6.07;4.23;;;26.00;34.60;;;;;;4965287;28;20110;-81
2022/04/18 11:55:19;;;;;;;4.10;3.53;;;25.50;32.20;;;;;;4952934;28;20720;-80
2022/04/18 11:57:48;;;;;;;4.25;3.65;;;25.10;36.50;;;;;;4966730;28;20043;-80
2022/04/18 12:06:44;;;;;;;5.82;3.63;;;25.00;37.20;;;;;;4947972;28;20047;-79
2022/04/18 12:08:39;;;;;;;5.57;3.78;;;25.60;32.50;;;;;;4964395;28;20035;-80
2022/04/18 12:11:05;;;;;;;5.60;4.03;;;25.20;34.20;;;;;;4969011;28;20019;-82
2022/04/18 12:13:31;;;;;;;7.07;3.83;;;25.10;33.70;;;;;;4966026;28;20030;-80
2022/04/18 12:15:59;;;;;;;4.68;3.20;;;25.20;33.90;;;;;;4966149;28;20023;-83
2022/04/18 12:18:25;;;;;;;6.43;3.90;;;25.50;35.20;;;;;;4949621;28;20046;-79
2022/04/18 12:20:52;;;;;;;5.75;3.83;;;25.80;33.70;;;;;;4961128;28;20023;-80
2022/04/18 12:23:26;;;;;;;5.63;3.33;;;25.90;33.30;;;;;;4958069;28;20019;-79
2022/04/18 12:25:57;;;;;;;6.50;3.65;;;26.20;34.10;;;;;;4971859;28;22087;-76
2022/04/18 12:28:26;;;;;;;4.93;3.55;;;26.40;34.30;;;;;;4951769;28;20035;-77
2022/04/18 12:30:52;;;;;;;4.15;3.15;;;26.90;34.20;;;;;;4955440;28;20057;-78
2022/04/18 12:33:20;;;;;;;4.65;3.38;;;27.10;33.10;;;;;;4952518;28;20051;-78
2022/04/18 12:35:53;;;;;;;3.90;2.90;;;27.30;32.40;;;;;;4960774;28;20063;-79
2022/04/18 12:38:36;;;;;;;6.95;3.22;;;27.40;32.80;;;;;;4929562;29;20024;-75
2022/04/18 12:41:03;;;;;;;6.55;3.60;;;27.80;32.30;;;;;;4955249;28;20042;-77
2022/04/18 12:43:31;;;;;;;4.10;3.10;;;28.10;31.70;;;;;;4955711;28;20031;-76
2022/04/18 12:46:05;;;;;;;4.70;3.25;;;28.70;31.50;;;;;;4938908;28;20106;-79
2022/04/18 12:48:33;;;;;;;4.38;3.22;;;29.30;31.40;;;;;;4941451;28;20047;-78
2022/04/18 12:51:03;;;;;;;6.68;3.67;;;29.90;30.60;;;;;;4953070;28;20039;-78
2022/04/18 12:53:49;;;;;;;4.32;3.25;;;30.50;29.30;;;;;;4946498;28;20043;-77
2022/04/18 12:56:21;;;;;;;6.38;4.15;;;29.90;28.80;;;;;;4973472;28;20027;-77
2022/04/18 12:59:02;;;;;;;5.47;3.80;;;30.00;28.30;;;;;;4966809;28;20042;-77
2022/04/18 13:01:36;;;;;;;5.32;3.65;;;30.30;29.30;;;;;;4969616;28;20042;-81
2022/04/18 13:04:04;;;;;;;5.88;3.25;;;30.80;29.20;;;;;;4938734;29;20020;-78
2022/04/18 13:06:32;;;;;;;5.40;3.95;;;31.00;29.40;;;;;;4979009;28;20167;-79
2022/04/18 13:09:04;;;;;;;5.85;3.88;;;31.40;28.60;;;;;;4955841;28;20086;-77
2022/04/18 13:11:42;;;;;;;4.70;3.60;;;32.00;28.40;;;;;;4967302;28;20035;-77
2022/04/18 13:14:10;;;;;;;4.28;3.03;;;32.20;27.20;;;;;;4950756;28;20038;-75